sensor_id;sensor_type;location;lat;lon;timestamp;P1;durP1;ratioP1;P2;durP2;ratioP2
68633;SDS011;55625;47.072;22.192;2023-04-01T00:00:56;1.73;;;0.95;;
68633;SDS011;55625;47.072;22.192;2023-04-01T00:03:24;2.00;;;1.10;;
68633;SDS011;55625;47.072;22.192;2023-04-01T00:05:52;2.30;;;1.15;;
68633;SDS011;55625;47.072;22.192;2023-04-01T00:08:19;2.33;;;1.53;;
68633;SDS011;55625;47.072;22.192;2023-04-01T00:10:45;2.95;;;1.35;;
68633;SDS011;55625;47.072;22.192;2023-04-01T00:13:11;2.45;;;1.13;;
68633;SDS011;55625;47.072;22.192;2023-04-01T00:15:37;2.28;;;1.58;;
68633;SDS011;55625;47.072;22.192;2023-04-01T00:18:06;1.50;;;0.80;;
68633;SDS011;55625;47.072;22.192;2023-04-01T00:20:32;1.40;;;0.63;;
68633;SDS011;55625;47.072;22.192;2023-04-01T00:22:58;2.75;;;1.63;;
68633;SDS011;55625;47.072;22.192;2023-04-01T00:25:24;2.50;;;1.42;;
68633;SDS011;55625;47.072;22.192;2023-04-01T00:27:50;4.37;;;0.90;;
68633;SDS011;55625;47.072;22.192;2023-04-01T00:30:16;7.95;;;1.02;;
68633;SDS011;55625;47.072;22.192;2023-04-01T00:32:42;2.38;;;1.10;;
68633;SDS011;55625;47.072;22.192;2023-04-01T00:35:08;1.58;;;0.77;;
68633;SDS011;55625;47.072;22.192;2023-04-01T00:37:35;1.93;;;1.37;;
68633;SDS011;55625;47.072;22.192;2023-04-01T00:40:03;1.85;;;0.98;;
68633;SDS011;55625;47.072;22.192;2023-04-01T00:42:31;2.60;;;1.10;;
68633;SDS011;55625;47.072;22.192;2023-04-01T00:44:58;1.65;;;0.88;;
68633;SDS011;55625;47.072;22.192;2023-04-01T00:47:44;2.17;;;1.48;;
68633;SDS011;55625;47.072;22.192;2023-04-01T00:50:10;1.30;;;0.43;;
68633;SDS011;55625;47.072;22.192;2023-04-01T00:52:35;4.53;;;1.33;;
68633;SDS011;55625;47.072;22.192;2023-04-01T00:55:01;2.55;;;0.68;;
68633;SDS011;55625;47.072;22.192;2023-04-01T00:57:34;2.43;;;0.40;;
68633;SDS011;55625;47.072;22.192;2023-04-01T01:00:04;1.42;;;0.55;;
68633;SDS011;55625;47.072;22.192;2023-04-01T01:02:35;1.77;;;0.30;;
68633;SDS011;55625;47.072;22.192;2023-04-01T01:05:01;1.65;;;0.25;;
68633;SDS011;55625;47.072;22.192;2023-04-01T01:07:45;1.33;;;0.60;;
68633;SDS011;55625;47.072;22.192;2023-04-01T01:10:26;1.20;;;0.47;;
68633;SDS011;55625;47.072;22.192;2023-04-01T01:34:01;1.73;;;1.08;;
68633;SDS011;55625;47.072;22.192;2023-04-01T01:36:38;0.98;;;0.38;;
68633;SDS011;55625;47.072;22.192;2023-04-01T01:39:10;4.00;;;0.90;;
68633;SDS011;55625;47.072;22.192;2023-04-01T01:41:37;4.60;;;1.40;;
68633;SDS011;55625;47.072;22.192;2023-04-01T01:44:06;1.75;;;0.57;;
68633;SDS011;55625;47.072;22.192;2023-04-01T01:46:35;1.63;;;0.95;;
68633;SDS011;55625;47.072;22.192;2023-04-01T01:49:03;2.03;;;1.05;;
68633;SDS011;55625;47.072;22.192;2023-04-01T01:51:32;2.07;;;1.07;;
68633;SDS011;55625;47.072;22.192;2023-04-01T01:53:58;1.30;;;0.70;;
68633;SDS011;55625;47.072;22.192;2023-04-01T01:56:25;1.50;;;0.82;;
68633;SDS011;55625;47.072;22.192;2023-04-01T01:58:55;3.63;;;1.10;;
68633;SDS011;55625;47.072;22.192;2023-04-01T02:01:29;2.20;;;0.32;;
68633;SDS011;55625;47.072;22.192;2023-04-01T02:04:00;0.90;;;0.30;;
68633;SDS011;55625;47.072;22.192;2023-04-01T02:06:28;1.13;;;0.20;;
68633;SDS011;55625;47.072;22.192;2023-04-01T02:08:59;1.33;;;0.63;;
68633;SDS011;55625;47.072;22.192;2023-04-01T02:14:13;1.65;;;0.57;;
68633;SDS011;55625;47.072;22.192;2023-04-01T02:16:54;6.87;;;0.80;;
68633;SDS011;55625;47.072;22.192;2023-04-01T02:19:34;1.17;;;0.40;;
68633;SDS011;55625;47.072;22.192;2023-04-01T02:22:12;2.60;;;0.75;;
68633;SDS011;55625;47.072;22.192;2023-04-01T02:24:43;1.75;;;0.40;;
68633;SDS011;55625;47.072;22.192;2023-04-01T02:27:10;1.35;;;0.65;;
68633;SDS011;55625;47.072;22.192;2023-04-01T02:29:36;1.10;;;0.33;;
68633;SDS011;55625;47.072;22.192;2023-04-01T02:32:03;1.23;;;0.68;;
68633;SDS011;55625;47.072;22.192;2023-04-01T02:34:32;2.67;;;0.63;;
68633;SDS011;55625;47.072;22.192;2023-04-01T02:36:58;1.80;;;0.90;;
68633;SDS011;55625;47.072;22.192;2023-04-01T02:39:24;1.30;;;0.65;;
68633;SDS011;55625;47.072;22.192;2023-04-01T02:41:51;5.33;;;0.80;;
68633;SDS011;55625;47.072;22.192;2023-04-01T02:44:18;2.03;;;0.93;;
68633;SDS011;55625;47.072;22.192;2023-04-01T02:46:44;1.58;;;0.50;;
68633;SDS011;55625;47.072;22.192;2023-04-01T02:49:10;2.45;;;0.65;;
68633;SDS011;55625;47.072;22.192;2023-04-01T02:51:36;1.43;;;0.47;;
68633;SDS011;55625;47.072;22.192;2023-04-01T02:54:02;1.88;;;1.00;;
68633;SDS011;55625;47.072;22.192;2023-04-01T02:56:28;4.45;;;1.05;;
68633;SDS011;55625;47.072;22.192;2023-04-01T02:58:55;1.77;;;0.75;;
68633;SDS011;55625;47.072;22.192;2023-04-01T03:01:21;1.77;;;0.77;;
68633;SDS011;55625;47.072;22.192;2023-04-01T03:03:47;2.33;;;1.43;;
68633;SDS011;55625;47.072;22.192;2023-04-01T03:06:14;1.45;;;0.77;;
68633;SDS011;55625;47.072;22.192;2023-04-01T03:08:41;2.28;;;1.02;;
68633;SDS011;55625;47.072;22.192;2023-04-01T03:11:09;2.03;;;0.95;;
68633;SDS011;55625;47.072;22.192;2023-04-01T03:13:36;1.03;;;0.13;;
68633;SDS011;55625;47.072;22.192;2023-04-01T03:16:02;2.42;;;0.90;;
68633;SDS011;55625;47.072;22.192;2023-04-01T03:18:28;2.47;;;1.02;;
68633;SDS011;55625;47.072;22.192;2023-04-01T03:20:54;1.45;;;0.93;;
68633;SDS011;55625;47.072;22.192;2023-04-01T03:23:20;6.35;;;1.77;;
68633;SDS011;55625;47.072;22.192;2023-04-01T03:25:46;1.60;;;0.87;;
68633;SDS011;55625;47.072;22.192;2023-04-01T03:28:13;2.17;;;1.27;;
68633;SDS011;55625;47.072;22.192;2023-04-01T03:30:39;2.65;;;1.20;;
68633;SDS011;55625;47.072;22.192;2023-04-01T03:33:05;1.33;;;0.65;;
68633;SDS011;55625;47.072;22.192;2023-04-01T03:35:31;1.33;;;0.65;;
68633;SDS011;55625;47.072;22.192;2023-04-01T03:37:58;1.33;;;0.60;;
68633;SDS011;55625;47.072;22.192;2023-04-01T03:40:24;1.40;;;0.60;;
68633;SDS011;55625;47.072;22.192;2023-04-01T03:42:51;1.40;;;0.50;;
68633;SDS011;55625;47.072;22.192;2023-04-01T03:45:17;1.40;;;0.43;;
68633;SDS011;55625;47.072;22.192;2023-04-01T03:47:43;2.10;;;1.43;;
68633;SDS011;55625;47.072;22.192;2023-04-01T03:50:09;1.45;;;0.70;;
68633;SDS011;55625;47.072;22.192;2023-04-01T03:52:36;1.85;;;0.68;;
68633;SDS011;55625;47.072;22.192;2023-04-01T03:55:01;3.05;;;0.55;;
68633;SDS011;55625;47.072;22.192;2023-04-01T03:57:28;1.90;;;1.57;;
68633;SDS011;55625;47.072;22.192;2023-04-01T03:59:56;4.50;;;1.33;;
68633;SDS011;55625;47.072;22.192;2023-04-01T04:02:22;3.30;;;2.25;;
68633;SDS011;55625;47.072;22.192;2023-04-01T04:04:47;2.13;;;1.20;;
68633;SDS011;55625;47.072;22.192;2023-04-01T04:07:13;2.60;;;1.57;;
68633;SDS011;55625;47.072;22.192;2023-04-01T04:09:39;2.38;;;1.38;;
68633;SDS011;55625;47.072;22.192;2023-04-01T04:12:05;2.47;;;0.57;;
68633;SDS011;55625;47.072;22.192;2023-04-01T04:14:31;2.67;;;1.13;;
68633;SDS011;55625;47.072;22.192;2023-04-01T04:16:57;2.27;;;1.30;;
68633;SDS011;55625;47.072;22.192;2023-04-01T04:19:23;10.23;;;1.13;;
68633;SDS011;55625;47.072;22.192;2023-04-01T04:21:49;1.52;;;0.75;;
68633;SDS011;55625;47.072;22.192;2023-04-01T04:24:15;1.73;;;0.90;;
68633;SDS011;55625;47.072;22.192;2023-04-01T04:26:40;1.73;;;0.80;;
68633;SDS011;55625;47.072;22.192;2023-04-01T04:29:06;1.67;;;1.00;;
68633;SDS011;55625;47.072;22.192;2023-04-01T04:31:32;3.93;;;1.10;;
68633;SDS011;55625;47.072;22.192;2023-04-01T04:33:58;2.42;;;1.08;;
68633;SDS011;55625;47.072;22.192;2023-04-01T04:36:26;3.53;;;0.70;;
68633;SDS011;55625;47.072;22.192;2023-04-01T04:38:52;2.67;;;0.80;;
68633;SDS011;55625;47.072;22.192;2023-04-01T04:41:18;1.75;;;0.75;;
68633;SDS011;55625;47.072;22.192;2023-04-01T04:43:50;1.70;;;0.60;;
68633;SDS011;55625;47.072;22.192;2023-04-01T04:46:21;13.18;;;1.17;;
68633;SDS011;55625;47.072;22.192;2023-04-01T04:48:47;1.88;;;1.08;;
68633;SDS011;55625;47.072;22.192;2023-04-01T04:51:14;2.63;;;1.57;;
68633;SDS011;55625;47.072;22.192;2023-04-01T04:53:42;3.30;;;1.08;;
68633;SDS011;55625;47.072;22.192;2023-04-01T04:56:08;6.15;;;1.85;;
68633;SDS011;55625;47.072;22.192;2023-04-01T04:58:34;14.07;;;1.35;;
68633;SDS011;55625;47.072;22.192;2023-04-01T05:01:05;3.53;;;1.33;;
68633;SDS011;55625;47.072;22.192;2023-04-01T05:03:36;1.97;;;1.00;;
68633;SDS011;55625;47.072;22.192;2023-04-01T05:06:03;2.88;;;0.65;;
68633;SDS011;55625;47.072;22.192;2023-04-01T05:08:30;2.17;;;1.08;;
68633;SDS011;55625;47.072;22.192;2023-04-01T05:10:57;3.17;;;1.85;;
68633;SDS011;55625;47.072;22.192;2023-04-01T05:13:24;1.83;;;1.05;;
68633;SDS011;55625;47.072;22.192;2023-04-01T05:15:50;4.70;;;0.90;;
68633;SDS011;55625;47.072;22.192;2023-04-01T05:18:16;3.00;;;2.25;;
68633;SDS011;55625;47.072;22.192;2023-04-01T05:20:49;1.58;;;0.47;;
68633;SDS011;55625;47.072;22.192;2023-04-01T05:23:18;1.00;;;0.28;;
68633;SDS011;55625;47.072;22.192;2023-04-01T05:25:46;1.60;;;0.75;;
68633;SDS011;55625;47.072;22.192;2023-04-01T05:28:13;4.47;;;0.70;;
68633;SDS011;55625;47.072;22.192;2023-04-01T05:30:40;2.60;;;1.40;;
68633;SDS011;55625;47.072;22.192;2023-04-01T05:33:08;2.55;;;1.52;;
68633;SDS011;55625;47.072;22.192;2023-04-01T05:35:35;4.47;;;1.73;;
68633;SDS011;55625;47.072;22.192;2023-04-01T05:38:01;1.80;;;1.03;;
68633;SDS011;55625;47.072;22.192;2023-04-01T05:40:28;1.23;;;0.60;;
68633;SDS011;55625;47.072;22.192;2023-04-01T05:42:55;2.13;;;0.77;;
68633;SDS011;55625;47.072;22.192;2023-04-01T05:45:20;6.25;;;2.33;;
68633;SDS011;55625;47.072;22.192;2023-04-01T05:47:47;2.37;;;1.20;;
68633;SDS011;55625;47.072;22.192;2023-04-01T05:50:12;1.77;;;0.98;;
68633;SDS011;55625;47.072;22.192;2023-04-01T05:52:38;3.35;;;2.15;;
68633;SDS011;55625;47.072;22.192;2023-04-01T05:55:05;5.45;;;1.88;;
68633;SDS011;55625;47.072;22.192;2023-04-01T05:57:31;5.17;;;2.70;;
68633;SDS011;55625;47.072;22.192;2023-04-01T05:59:57;3.08;;;1.65;;
68633;SDS011;55625;47.072;22.192;2023-04-01T06:02:23;2.22;;;1.50;;
68633;SDS011;55625;47.072;22.192;2023-04-01T06:04:49;2.37;;;1.50;;
68633;SDS011;55625;47.072;22.192;2023-04-01T06:07:28;2.33;;;1.47;;
68633;SDS011;55625;47.072;22.192;2023-04-01T06:09:54;2.78;;;2.45;;
68633;SDS011;55625;47.072;22.192;2023-04-01T06:15:19;1.70;;;0.60;;
68633;SDS011;55625;47.072;22.192;2023-04-01T06:21:31;2.42;;;1.23;;
68633;SDS011;55625;47.072;22.192;2023-04-01T06:30:43;2.95;;;1.02;;
68633;SDS011;55625;47.072;22.192;2023-04-01T06:39:41;4.78;;;1.45;;
68633;SDS011;55625;47.072;22.192;2023-04-01T06:54:47;7.57;;;1.77;;
68633;SDS011;55625;47.072;22.192;2023-04-01T07:00:17;2.67;;;1.25;;
68633;SDS011;55625;47.072;22.192;2023-04-01T07:02:57;2.90;;;1.13;;
68633;SDS011;55625;47.072;22.192;2023-04-01T07:05:31;2.33;;;1.10;;
68633;SDS011;55625;47.072;22.192;2023-04-01T07:08:01;2.10;;;1.30;;
68633;SDS011;55625;47.072;22.192;2023-04-01T07:13:49;1.95;;;0.75;;
68633;SDS011;55625;47.072;22.192;2023-04-01T07:16:41;3.80;;;2.23;;
68633;SDS011;55625;47.072;22.192;2023-04-01T07:25:11;1.52;;;0.82;;
68633;SDS011;55625;47.072;22.192;2023-04-01T07:27:44;1.45;;;0.50;;
68633;SDS011;55625;47.072;22.192;2023-04-01T07:56:22;2.47;;;0.75;;
68633;SDS011;55625;47.072;22.192;2023-04-01T08:07:10;1.83;;;0.98;;
68633;SDS011;55625;47.072;22.192;2023-04-01T08:15:21;1.40;;;0.70;;
68633;SDS011;55625;47.072;22.192;2023-04-01T08:23:24;3.20;;;1.30;;
68633;SDS011;55625;47.072;22.192;2023-04-01T08:26:37;2.37;;;1.03;;
68633;SDS011;55625;47.072;22.192;2023-04-01T08:28:51;3.10;;;0.88;;
68633;SDS011;55625;47.072;22.192;2023-04-01T08:31:33;2.10;;;1.15;;
68633;SDS011;55625;47.072;22.192;2023-04-01T08:34:23;2.55;;;0.95;;
68633;SDS011;55625;47.072;22.192;2023-04-01T08:36:58;2.08;;;0.70;;
68633;SDS011;55625;47.072;22.192;2023-04-01T08:39:52;4.17;;;1.87;;
68633;SDS011;55625;47.072;22.192;2023-04-01T08:42:27;2.35;;;1.60;;
68633;SDS011;55625;47.072;22.192;2023-04-01T08:45:44;1.75;;;0.85;;
68633;SDS011;55625;47.072;22.192;2023-04-01T08:58:38;2.85;;;1.80;;
68633;SDS011;55625;47.072;22.192;2023-04-01T09:23:20;1.98;;;0.95;;
68633;SDS011;55625;47.072;22.192;2023-04-01T09:37:21;40.67;;;3.47;;
68633;SDS011;55625;47.072;22.192;2023-04-01T09:43:42;15.55;;;2.92;;
68633;SDS011;55625;47.072;22.192;2023-04-01T09:49:26;4.05;;;0.75;;
68633;SDS011;55625;47.072;22.192;2023-04-01T09:52:35;2.83;;;0.80;;
68633;SDS011;55625;47.072;22.192;2023-04-01T10:06:27;36.08;;;5.75;;
68633;SDS011;55625;47.072;22.192;2023-04-01T10:13:04;11.38;;;2.17;;
68633;SDS011;55625;47.072;22.192;2023-04-01T10:30:28;1.58;;;0.45;;
68633;SDS011;55625;47.072;22.192;2023-04-01T10:39:38;2.37;;;1.20;;
68633;SDS011;55625;47.072;22.192;2023-04-01T11:28:16;4.15;;;1.17;;
68633;SDS011;55625;47.072;22.192;2023-04-01T11:43:42;2.10;;;1.13;;
68633;SDS011;55625;47.072;22.192;2023-04-01T11:52:16;8.95;;;1.27;;
68633;SDS011;55625;47.072;22.192;2023-04-01T12:01:20;3.37;;;0.53;;
68633;SDS011;55625;47.072;22.192;2023-04-01T12:12:45;3.78;;;0.80;;
68633;SDS011;55625;47.072;22.192;2023-04-01T12:22:23;7.35;;;1.23;;
68633;SDS011;55625;47.072;22.192;2023-04-01T12:28:25;1.88;;;1.00;;
68633;SDS011;55625;47.072;22.192;2023-04-01T12:39:41;4.38;;;2.10;;
68633;SDS011;55625;47.072;22.192;2023-04-01T12:57:16;2.30;;;1.00;;
68633;SDS011;55625;47.072;22.192;2023-04-01T13:16:42;2.95;;;0.98;;
68633;SDS011;55625;47.072;22.192;2023-04-01T13:19:25;2.70;;;1.63;;
68633;SDS011;55625;47.072;22.192;2023-04-01T13:31:13;2.65;;;0.85;;
68633;SDS011;55625;47.072;22.192;2023-04-01T13:36:38;7.70;;;2.42;;
68633;SDS011;55625;47.072;22.192;2023-04-01T13:42:45;2.17;;;0.20;;
68633;SDS011;55625;47.072;22.192;2023-04-01T13:45:19;2.90;;;0.82;;
68633;SDS011;55625;47.072;22.192;2023-04-01T14:11:18;1.98;;;0.65;;
68633;SDS011;55625;47.072;22.192;2023-04-01T14:22:46;1.50;;;0.63;;
68633;SDS011;55625;47.072;22.192;2023-04-01T14:47:34;1.88;;;1.00;;
68633;SDS011;55625;47.072;22.192;2023-04-01T14:50:09;3.25;;;1.20;;
68633;SDS011;55625;47.072;22.192;2023-04-01T14:52:48;5.23;;;1.97;;
68633;SDS011;55625;47.072;22.192;2023-04-01T14:55:55;4.05;;;1.58;;
68633;SDS011;55625;47.072;22.192;2023-04-01T14:58:26;1.98;;;0.95;;
68633;SDS011;55625;47.072;22.192;2023-04-01T15:03:59;1.90;;;0.43;;
68633;SDS011;55625;47.072;22.192;2023-04-01T15:07:01;1.50;;;0.97;;
68633;SDS011;55625;47.072;22.192;2023-04-01T15:27:51;5.60;;;1.48;;
68633;SDS011;55625;47.072;22.192;2023-04-01T15:36:24;3.57;;;0.97;;
68633;SDS011;55625;47.072;22.192;2023-04-01T16:03:59;1.87;;;0.50;;
68633;SDS011;55625;47.072;22.192;2023-04-01T16:13:14;2.03;;;0.40;;
68633;SDS011;55625;47.072;22.192;2023-04-01T16:22:12;4.35;;;0.82;;
68633;SDS011;55625;47.072;22.192;2023-04-01T16:33:39;2.00;;;1.07;;
68633;SDS011;55625;47.072;22.192;2023-04-01T16:42:31;6.18;;;1.67;;
68633;SDS011;55625;47.072;22.192;2023-04-01T16:45:17;6.05;;;2.70;;
68633;SDS011;55625;47.072;22.192;2023-04-01T16:47:54;8.13;;;4.73;;
68633;SDS011;55625;47.072;22.192;2023-04-01T16:50:39;7.45;;;4.28;;
68633;SDS011;55625;47.072;22.192;2023-04-01T16:53:37;8.23;;;5.68;;
68633;SDS011;55625;47.072;22.192;2023-04-01T16:56:29;6.57;;;3.75;;
68633;SDS011;55625;47.072;22.192;2023-04-01T16:59:20;11.65;;;4.88;;
68633;SDS011;55625;47.072;22.192;2023-04-01T17:02:02;8.13;;;4.77;;
68633;SDS011;55625;47.072;22.192;2023-04-01T17:04:57;11.45;;;4.53;;
68633;SDS011;55625;47.072;22.192;2023-04-01T17:10:31;7.63;;;4.55;;
68633;SDS011;55625;47.072;22.192;2023-04-01T17:25:13;5.10;;;3.05;;
68633;SDS011;55625;47.072;22.192;2023-04-01T17:28:17;6.60;;;3.78;;
68633;SDS011;55625;47.072;22.192;2023-04-01T18:05:34;3.28;;;1.33;;
68633;SDS011;55625;47.072;22.192;2023-04-01T18:08:47;7.55;;;1.38;;
68633;SDS011;55625;47.072;22.192;2023-04-01T18:14:26;2.72;;;1.48;;
68633;SDS011;55625;47.072;22.192;2023-04-01T18:17:43;5.90;;;1.27;;
68633;SDS011;55625;47.072;22.192;2023-04-01T18:20:36;6.95;;;1.60;;
68633;SDS011;55625;47.072;22.192;2023-04-01T18:26:39;7.32;;;2.33;;
68633;SDS011;55625;47.072;22.192;2023-04-01T18:32:44;1.70;;;0.50;;
68633;SDS011;55625;47.072;22.192;2023-04-01T18:35:27;3.35;;;1.10;;
68633;SDS011;55625;47.072;22.192;2023-04-01T18:43:16;2.03;;;1.42;;
68633;SDS011;55625;47.072;22.192;2023-04-01T18:46:09;3.17;;;1.63;;
68633;SDS011;55625;47.072;22.192;2023-04-01T18:51:52;3.28;;;1.90;;
68633;SDS011;55625;47.072;22.192;2023-04-01T18:57:26;9.35;;;4.90;;
68633;SDS011;55625;47.072;22.192;2023-04-01T19:00:41;20.00;;;4.87;;
68633;SDS011;55625;47.072;22.192;2023-04-01T19:03:39;5.95;;;4.95;;
68633;SDS011;55625;47.072;22.192;2023-04-01T19:06:58;7.13;;;4.82;;
68633;SDS011;55625;47.072;22.192;2023-04-01T19:09:18;7.07;;;3.95;;
68633;SDS011;55625;47.072;22.192;2023-04-01T19:11:53;5.68;;;3.38;;
68633;SDS011;55625;47.072;22.192;2023-04-01T19:14:55;4.43;;;3.00;;
68633;SDS011;55625;47.072;22.192;2023-04-01T19:18:00;7.45;;;4.13;;
68633;SDS011;55625;47.072;22.192;2023-04-01T19:35:09;10.48;;;5.63;;
68633;SDS011;55625;47.072;22.192;2023-04-01T19:40:57;8.27;;;4.53;;
68633;SDS011;55625;47.072;22.192;2023-04-01T19:44:04;13.00;;;3.70;;
68633;SDS011;55625;47.072;22.192;2023-04-01T20:00:58;8.50;;;4.40;;
68633;SDS011;55625;47.072;22.192;2023-04-01T20:12:33;9.60;;;5.23;;
68633;SDS011;55625;47.072;22.192;2023-04-01T20:15:37;7.10;;;4.20;;
68633;SDS011;55625;47.072;22.192;2023-04-01T20:18:21;8.02;;;4.97;;
68633;SDS011;55625;47.072;22.192;2023-04-01T20:35:30;3.50;;;2.17;;
68633;SDS011;55625;47.072;22.192;2023-04-01T20:44:40;2.78;;;1.58;;
68633;SDS011;55625;47.072;22.192;2023-04-01T20:48:14;5.40;;;2.85;;
68633;SDS011;55625;47.072;22.192;2023-04-01T20:50:28;5.05;;;1.85;;
68633;SDS011;55625;47.072;22.192;2023-04-01T20:58:58;3.28;;;1.33;;
68633;SDS011;55625;47.072;22.192;2023-04-01T21:05:34;3.75;;;2.10;;
68633;SDS011;55625;47.072;22.192;2023-04-01T21:35:19;16.80;;;8.52;;
68633;SDS011;55625;47.072;22.192;2023-04-01T21:41:08;24.67;;;10.23;;
68633;SDS011;55625;47.072;22.192;2023-04-01T21:44:10;11.88;;;8.52;;
68633;SDS011;55625;47.072;22.192;2023-04-01T21:55:44;22.97;;;13.70;;
68633;SDS011;55625;47.072;22.192;2023-04-01T22:01:26;17.67;;;9.55;;
68633;SDS011;55625;47.072;22.192;2023-04-01T22:04:15;16.90;;;6.57;;
68633;SDS011;55625;47.072;22.192;2023-04-01T22:10:38;12.77;;;4.93;;
68633;SDS011;55625;47.072;22.192;2023-04-01T22:13:19;5.95;;;4.03;;
68633;SDS011;55625;47.072;22.192;2023-04-01T22:19:06;10.93;;;4.85;;
68633;SDS011;55625;47.072;22.192;2023-04-01T22:27:49;10.25;;;5.38;;
68633;SDS011;55625;47.072;22.192;2023-04-01T22:30:36;9.25;;;5.70;;
68633;SDS011;55625;47.072;22.192;2023-04-01T22:39:14;10.00;;;5.73;;
68633;SDS011;55625;47.072;22.192;2023-04-01T22:47:52;14.70;;;6.47;;
68633;SDS011;55625;47.072;22.192;2023-04-01T22:50:55;8.93;;;5.80;;
68633;SDS011;55625;47.072;22.192;2023-04-01T22:56:35;8.65;;;5.00;;
68633;SDS011;55625;47.072;22.192;2023-04-01T23:02:23;11.60;;;5.50;;
68633;SDS011;55625;47.072;22.192;2023-04-01T23:04:58;4.93;;;3.83;;
68633;SDS011;55625;47.072;22.192;2023-04-01T23:10:20;8.65;;;4.88;;
68633;SDS011;55625;47.072;22.192;2023-04-01T23:13:04;10.07;;;4.20;;
68633;SDS011;55625;47.072;22.192;2023-04-01T23:15:41;8.23;;;3.45;;
68633;SDS011;55625;47.072;22.192;2023-04-01T23:18:11;7.55;;;4.68;;
68633;SDS011;55625;47.072;22.192;2023-04-01T23:20:56;6.50;;;4.30;;
68633;SDS011;55625;47.072;22.192;2023-04-01T23:30:04;7.43;;;3.88;;
68633;SDS011;55625;47.072;22.192;2023-04-01T23:33:09;5.53;;;3.55;;
68633;SDS011;55625;47.072;22.192;2023-04-01T23:35:53;6.70;;;3.03;;
68633;SDS011;55625;47.072;22.192;2023-04-01T23:38:41;5.03;;;3.70;;
68633;SDS011;55625;47.072;22.192;2023-04-01T23:41:27;9.32;;;3.45;;
68633;SDS011;55625;47.072;22.192;2023-04-01T23:46:29;5.22;;;3.10;;
68633;SDS011;55625;47.072;22.192;2023-04-01T23:48:58;8.80;;;3.30;;
68633;SDS011;55625;47.072;22.192;2023-04-01T23:51:26;7.88;;;4.25;;
68633;SDS011;55625;47.072;22.192;2023-04-01T23:54:03;7.03;;;3.75;;
68633;SDS011;55625;47.072;22.192;2023-04-01T23:56:41;4.22;;;2.75;;
68633;SDS011;55625;47.072;22.192;2023-04-01T23:59:14;7.03;;;3.67;;
